createdAt,value
2023-01-02T00:01:30.214Z,5.30
2023-01-02T00:03:58.037Z,5.50
2023-01-02T00:06:25.591Z,5.40
2023-01-02T00:08:52.565Z,5.20
2023-01-02T00:11:19.455Z,5.50
2023-01-02T00:13:48.963Z,5.30
2023-01-02T00:16:17.097Z,5.30
2023-01-02T00:18:44.022Z,5.50
2023-01-02T00:21:10.977Z,5.30
2023-01-02T00:23:39.077Z,5.00
2023-01-02T00:26:07.498Z,5.50
2023-01-02T00:28:35.761Z,4.90
2023-01-02T00:31:20.996Z,5.30
2023-01-02T00:33:49.002Z,5.40
2023-01-02T00:36:16.183Z,5.20
2023-01-02T00:38:43.705Z,5.50
2023-01-02T00:41:10.925Z,5.20
2023-01-02T00:43:37.991Z,5.10
2023-01-02T00:46:11.241Z,5.50
2023-01-02T00:48:40.736Z,4.70
2023-01-02T00:51:08.450Z,4.80
2023-01-02T00:53:35.595Z,5.00
2023-01-02T00:56:02.543Z,5.20
2023-01-02T00:58:29.659Z,5.10
2023-01-02T01:00:56.712Z,5.00
2023-01-02T01:03:24.019Z,5.10
2023-01-02T01:05:50.976Z,4.80
2023-01-02T01:08:18.034Z,5.20
2023-01-02T01:10:45.066Z,5.30
2023-01-02T01:13:12.002Z,5.10
2023-01-02T01:15:38.918Z,4.70
2023-01-02T01:18:05.996Z,4.80
2023-01-02T01:20:33.024Z,4.60
2023-01-02T01:23:00.020Z,4.90
2023-01-02T01:25:27.032Z,5.00
2023-01-02T01:27:54.657Z,4.80
2023-01-02T01:30:22.008Z,5.10
2023-01-02T01:32:49.100Z,5.10
2023-01-02T01:35:15.997Z,5.00
2023-01-02T01:37:43.025Z,5.00
2023-01-02T01:40:10.332Z,4.90
2023-01-02T01:42:37.428Z,5.10
2023-01-02T01:45:12.651Z,4.40
2023-01-02T01:47:53.859Z,5.00
2023-01-02T01:50:34.871Z,4.30
2023-01-02T01:53:04.117Z,4.80
2023-01-02T01:55:41.301Z,4.50
2023-01-02T01:58:10.869Z,4.80
2023-01-02T02:00:40.705Z,4.90
2023-01-02T02:03:12.872Z,4.50
2023-01-02T02:05:42.507Z,4.60
2023-01-02T02:08:16.883Z,4.60
2023-01-02T02:10:44.931Z,4.70
2023-01-02T02:13:11.903Z,4.60
2023-01-02T02:16:12.555Z,4.70
2023-01-02T02:19:07.437Z,4.40
2023-01-02T02:21:56.550Z,4.30
2023-01-02T02:24:47.596Z,4.20
2023-01-02T02:27:49.965Z,4.00
2023-01-02T02:30:20.699Z,4.00
2023-01-02T02:33:46.105Z,4.20
2023-01-02T02:36:27.000Z,4.40
2023-01-02T02:39:15.779Z,4.10
2023-01-02T02:41:53.252Z,4.20
2023-01-02T02:44:40.848Z,4.50
2023-01-02T02:47:22.467Z,4.30
2023-01-02T02:49:53.310Z,4.10
2023-01-02T02:52:43.946Z,4.50
2023-01-02T02:55:27.087Z,4.10
2023-01-02T02:57:55.294Z,4.30
2023-01-02T03:00:23.772Z,4.50
2023-01-02T03:02:51.348Z,4.30
2023-01-02T03:05:51.858Z,4.00
2023-01-02T03:08:50.964Z,4.40
2023-01-02T03:11:18.103Z,4.70
2023-01-02T03:13:53.855Z,4.10
2023-01-02T03:16:25.974Z,4.10
2023-01-02T03:19:14.979Z,4.10
2023-01-02T03:21:49.356Z,4.40
2023-01-02T03:24:20.773Z,4.10
2023-01-02T03:26:53.129Z,4.40
2023-01-02T03:29:33.592Z,4.40
2023-01-02T03:32:03.752Z,4.10
2023-01-02T03:34:36.359Z,4.00
2023-01-02T03:37:10.729Z,4.40
2023-01-02T03:39:43.593Z,4.40
2023-01-02T03:42:15.000Z,4.50
2023-01-02T03:44:51.448Z,3.80
2023-01-02T03:47:28.631Z,6.40
2023-01-02T03:49:59.927Z,4.30
2023-01-02T03:52:26.969Z,4.00
2023-01-02T03:54:56.549Z,4.00
2023-01-02T03:57:28.509Z,4.10
2023-01-02T04:00:03.874Z,4.00
2023-01-02T04:02:48.660Z,3.90
2023-01-02T04:05:48.916Z,4.00
2023-01-02T04:08:38.527Z,4.00
2023-01-02T04:11:08.277Z,4.00
2023-01-02T04:13:47.285Z,4.10
2023-01-02T04:16:20.728Z,4.20
2023-01-02T04:19:13.851Z,4.10
2023-01-02T04:21:41.871Z,4.10
2023-01-02T04:24:14.211Z,4.00
2023-01-02T04:27:05.887Z,4.20
2023-01-02T04:29:33.020Z,4.10
2023-01-02T04:32:19.698Z,4.00
2023-01-02T04:34:49.083Z,3.90
2023-01-02T04:37:42.237Z,4.20
2023-01-02T04:40:29.028Z,3.60
2023-01-02T04:42:56.063Z,2.70
2023-01-02T04:45:23.679Z,2.70
2023-01-02T04:47:51.128Z,3.00
2023-01-02T04:50:18.243Z,3.30
2023-01-02T04:52:45.449Z,3.60
2023-01-02T04:55:12.492Z,3.80
2023-01-02T04:57:40.055Z,3.40
2023-01-02T05:00:08.595Z,3.60
2023-01-02T05:02:39.710Z,3.30
2023-01-02T05:05:08.941Z,3.20
2023-01-02T05:07:37.146Z,3.40
2023-01-02T05:10:04.901Z,3.50
2023-01-02T05:12:36.031Z,3.50
2023-01-02T05:15:04.577Z,3.50
2023-01-02T05:17:39.510Z,3.20
2023-01-02T05:20:08.934Z,3.10
2023-01-02T05:23:00.451Z,4.10
2023-01-02T05:25:31.424Z,3.50
2023-01-02T05:27:58.625Z,3.70
2023-01-02T05:30:25.813Z,3.40
2023-01-02T05:32:53.709Z,3.50
2023-01-02T05:35:23.566Z,3.70
2023-01-02T05:37:54.555Z,4.50
2023-01-02T05:40:21.540Z,3.60
2023-01-02T05:42:48.627Z,3.40
2023-01-02T05:45:15.727Z,3.90
2023-01-02T05:47:42.673Z,3.70
2023-01-02T05:50:10.805Z,3.80
2023-01-02T05:52:44.887Z,3.70
2023-01-02T05:55:12.885Z,3.30
2023-01-02T05:57:42.061Z,3.50
2023-01-02T06:00:10.787Z,3.60
2023-01-02T06:02:47.542Z,3.90
2023-01-02T06:05:15.207Z,3.70
2023-01-02T06:07:42.253Z,3.70
2023-01-02T06:10:09.594Z,3.60
2023-01-02T06:12:36.502Z,3.80
2023-01-02T06:15:03.934Z,3.80
2023-01-02T06:17:32.700Z,2.80
2023-01-02T06:20:01.133Z,2.50
2023-01-02T06:22:29.510Z,2.80
2023-01-02T06:24:57.520Z,3.00
2023-01-02T06:27:25.584Z,3.50
2023-01-02T06:29:53.443Z,3.80
2023-01-02T06:32:25.139Z,3.90
2023-01-02T06:34:53.383Z,3.30
2023-01-02T06:37:20.633Z,3.70
2023-01-02T06:39:55.623Z,3.70
2023-01-02T06:42:24.613Z,4.00
2023-01-02T06:44:53.071Z,3.80
2023-01-02T06:47:21.771Z,3.80
2023-01-02T06:49:49.978Z,3.90
2023-01-02T06:52:17.135Z,3.80
2023-01-02T06:54:44.200Z,3.50
2023-01-02T06:57:11.266Z,3.90
2023-01-02T06:59:38.437Z,4.00
2023-01-02T07:02:06.508Z,4.00
2023-01-02T07:04:33.581Z,3.80
2023-01-02T07:07:01.558Z,3.70
2023-01-02T07:09:28.590Z,3.70
2023-01-02T07:11:55.581Z,3.70
2023-01-02T07:14:22.554Z,3.90
2023-01-02T07:16:49.586Z,3.50
2023-01-02T07:19:16.566Z,3.60
2023-01-02T07:21:43.549Z,3.80
2023-01-02T07:24:15.628Z,3.40
2023-01-02T07:26:43.185Z,3.50
2023-01-02T07:29:10.423Z,3.60
2023-01-02T07:31:38.364Z,3.40
2023-01-02T07:34:05.955Z,3.40
2023-01-02T07:36:32.888Z,3.30
2023-01-02T07:38:59.870Z,3.70
2023-01-02T07:41:27.117Z,3.20
2023-01-02T07:43:56.257Z,3.20
2023-01-02T07:46:24.071Z,3.60
2023-01-02T07:48:51.279Z,3.50
2023-01-02T07:51:26.280Z,3.80
2023-01-02T07:53:55.900Z,3.10
2023-01-02T07:56:23.728Z,3.30
2023-01-02T07:58:51.263Z,2.90
2023-01-02T08:01:19.493Z,2.80
2023-01-02T08:03:47.773Z,3.20
2023-01-02T08:06:19.756Z,3.10
2023-01-02T08:08:47.200Z,3.00
2023-01-02T08:11:19.779Z,3.10
2023-01-02T08:13:47.188Z,3.20
2023-01-02T08:16:18.169Z,2.80
2023-01-02T08:18:46.980Z,2.70
2023-01-02T08:21:17.789Z,2.80
2023-01-02T08:23:45.073Z,2.90
2023-01-02T08:26:13.943Z,2.90
2023-01-02T08:28:51.280Z,2.70
2023-01-02T08:31:21.900Z,2.80
2023-01-02T08:33:53.025Z,2.80
2023-01-02T08:36:21.137Z,2.90
2023-01-02T08:38:48.829Z,2.90
2023-01-02T08:41:18.359Z,2.60
2023-01-02T08:43:45.663Z,2.70
2023-01-02T08:46:13.701Z,2.80
2023-01-02T08:48:41.881Z,2.40
2023-01-02T08:51:10.324Z,2.40
2023-01-02T08:53:38.372Z,2.60
2023-01-02T08:56:25.820Z,2.70
2023-01-02T08:59:20.167Z,2.50
2023-01-02T09:01:47.769Z,2.30
2023-01-02T09:04:15.157Z,2.30
2023-01-02T09:06:48.405Z,2.30
2023-01-02T09:09:18.634Z,2.30
2023-01-02T09:11:51.270Z,2.60
2023-01-02T09:14:22.885Z,2.20
2023-01-02T09:16:51.795Z,2.20
2023-01-02T09:19:19.678Z,2.00
2023-01-02T09:21:49.587Z,2.40
2023-01-02T09:24:17.013Z,2.30
2023-01-02T09:26:44.335Z,2.30
2023-01-02T09:29:14.287Z,2.40
2023-01-02T09:31:42.352Z,2.10
2023-01-02T09:34:09.735Z,2.20
2023-01-02T09:36:37.784Z,2.40
2023-01-02T09:39:06.287Z,2.10
2023-01-02T09:41:47.511Z,2.00
2023-01-02T09:44:34.486Z,1.50
2023-01-02T09:47:24.788Z,1.90
2023-01-02T09:49:56.946Z,2.20
2023-01-02T09:52:33.884Z,2.20
2023-01-02T09:55:02.983Z,1.90
2023-01-02T09:57:30.510Z,2.10
2023-01-02T10:00:11.057Z,1.80
2023-01-02T10:02:41.587Z,2.00
2023-01-02T10:05:31.062Z,2.10
2023-01-02T10:08:42.912Z,2.00
2023-01-02T10:11:47.156Z,1.90
2023-01-02T10:14:29.417Z,1.70
2023-01-02T10:17:05.877Z,1.60
2023-01-02T10:20:12.728Z,2.00
2023-01-02T10:22:50.168Z,1.80
2023-01-02T10:25:23.181Z,1.80
2023-01-02T10:28:00.625Z,1.50
2023-01-02T10:30:33.238Z,1.70
2023-01-02T10:33:12.470Z,1.50
2023-01-02T10:35:55.853Z,1.60
2023-01-02T10:38:23.309Z,1.70
2023-01-02T10:40:54.221Z,1.90
2023-01-02T10:43:23.835Z,1.90
2023-01-02T10:45:54.304Z,1.70
2023-01-02T10:48:24.921Z,2.20
2023-01-02T10:50:57.138Z,1.60
2023-01-02T10:53:30.351Z,1.80
2023-01-02T10:56:02.342Z,1.80
2023-01-02T10:58:30.903Z,1.70
2023-01-02T11:01:14.088Z,1.50
2023-01-02T11:03:41.425Z,2.10
2023-01-02T11:06:31.060Z,1.70
2023-01-02T11:09:16.348Z,1.60
2023-01-02T11:11:50.695Z,1.70
2023-01-02T11:14:22.884Z,1.50
2023-01-02T11:16:50.589Z,1.60
2023-01-02T11:19:29.085Z,1.60
2023-01-02T11:21:57.078Z,1.60
2023-01-02T11:24:27.391Z,1.50
2023-01-02T11:26:57.364Z,1.50
2023-01-02T11:29:48.257Z,1.70
2023-01-02T11:32:28.806Z,1.70
2023-01-02T11:35:00.303Z,1.60
2023-01-02T11:37:29.241Z,1.80
2023-01-02T11:40:04.037Z,1.80
2023-01-02T11:42:58.621Z,1.60
2023-01-02T11:45:26.717Z,1.70
2023-01-02T11:48:06.385Z,1.70
2023-01-02T11:50:39.594Z,1.60
2023-01-02T11:53:28.717Z,1.80
2023-01-02T11:56:14.952Z,1.40
2023-01-02T11:58:57.715Z,1.50
2023-01-02T12:01:44.392Z,1.40
2023-01-02T12:04:13.552Z,1.50
2023-01-02T12:07:19.231Z,1.60
2023-01-02T12:10:11.864Z,1.40
2023-01-02T12:12:48.167Z,1.60
2023-01-02T12:15:39.994Z,1.20
2023-01-02T12:18:28.838Z,1.50
2023-01-02T12:20:58.760Z,1.60
2023-01-02T12:23:55.733Z,1.60
2023-01-02T12:26:31.904Z,1.50
2023-01-02T12:28:59.369Z,1.50
2023-01-02T12:31:52.243Z,1.40
2023-01-02T12:34:51.741Z,1.40
2023-01-02T12:37:58.319Z,1.40
2023-01-02T12:40:49.255Z,1.50
2023-01-02T12:43:25.428Z,1.60
2023-01-02T12:46:01.140Z,1.30
2023-01-02T12:48:54.102Z,1.70
2023-01-02T12:51:59.641Z,1.40
2023-01-02T12:54:50.293Z,1.40
2023-01-02T12:57:59.086Z,1.50
2023-01-02T13:00:44.486Z,1.90
2023-01-02T13:03:22.195Z,1.70
2023-01-02T13:06:44.469Z,1.60
2023-01-02T13:09:18.328Z,1.70
2023-01-02T13:11:54.260Z,1.40
2023-01-02T13:14:27.193Z,1.70
2023-01-02T13:17:09.681Z,1.50
2023-01-02T13:20:01.574Z,1.80
2023-01-02T13:23:00.930Z,1.50
2023-01-02T13:25:31.096Z,1.60
2023-01-02T13:28:00.078Z,1.70
2023-01-02T13:30:39.607Z,1.70
2023-01-02T13:33:37.259Z,1.60
2023-01-02T13:36:21.117Z,1.40
2023-01-02T13:38:53.027Z,1.70
2023-01-02T13:41:21.046Z,1.60
2023-01-02T13:43:56.805Z,1.50
2023-01-02T13:49:20.604Z,1.60
2023-01-02T13:51:48.047Z,1.40
2023-01-02T13:54:20.829Z,1.80
2023-01-02T13:57:18.870Z,1.80
2023-01-02T14:00:14.853Z,1.70
2023-01-02T14:03:21.062Z,1.80
2023-01-02T14:05:58.047Z,1.60
2023-01-02T14:08:36.056Z,1.60
2023-01-02T14:11:05.907Z,1.40
2023-01-02T14:13:54.503Z,1.50
2023-01-02T14:16:22.492Z,1.70
2023-01-02T14:19:14.120Z,1.60
2023-01-02T14:21:47.038Z,1.90
2023-01-02T14:24:46.481Z,1.60
2023-01-02T14:27:16.441Z,1.70
2023-01-02T14:29:56.202Z,1.50
2023-01-02T14:32:35.480Z,1.50
2023-01-02T14:35:25.159Z,1.50
2023-01-02T14:37:55.033Z,1.70
2023-01-02T14:40:21.902Z,1.70
2023-01-02T14:43:27.718Z,1.50
2023-01-02T14:46:16.627Z,1.40
2023-01-02T14:49:25.317Z,1.70
2023-01-02T14:52:17.615Z,1.50
2023-01-02T14:54:58.360Z,1.80
2023-01-02T14:57:32.367Z,1.60
2023-01-02T15:00:03.073Z,1.80
2023-01-02T15:02:44.759Z,1.60
2023-01-02T15:05:17.682Z,1.60
2023-01-02T15:07:50.462Z,1.70
2023-01-02T15:10:19.914Z,1.70
2023-01-02T15:13:05.215Z,1.40
2023-01-02T15:15:36.182Z,1.60
2023-01-02T15:18:15.778Z,1.60
2023-01-02T15:20:43.873Z,1.80
2023-01-02T15:23:25.496Z,1.50
2023-01-02T15:26:32.746Z,1.70
2023-01-02T15:28:41.242Z,1.50
2023-01-02T15:31:16.159Z,1.70
2023-01-02T15:33:43.146Z,1.50
2023-01-02T15:36:37.915Z,1.60
2023-01-02T15:39:17.401Z,1.80
2023-01-02T15:41:48.005Z,1.40
2023-01-02T15:44:41.493Z,1.60
2023-01-02T15:47:09.801Z,1.60
2023-01-02T15:49:42.252Z,1.80
2023-01-02T15:52:25.818Z,1.80
2023-01-02T15:54:53.930Z,1.80
2023-01-02T15:57:28.776Z,1.50
2023-01-02T15:59:56.182Z,1.50
2023-01-02T16:02:46.654Z,1.50
2023-01-02T16:05:19.959Z,1.50
2023-01-02T16:07:52.534Z,1.60
2023-01-02T16:10:22.841Z,1.50
2023-01-02T16:12:56.617Z,1.60
2023-01-02T16:15:31.117Z,1.50
2023-01-02T16:17:58.657Z,1.80
2023-01-02T16:20:31.858Z,2.10
2023-01-02T16:23:08.132Z,1.50
2023-01-02T16:25:43.451Z,1.70
2023-01-02T16:28:35.410Z,1.70
2023-01-02T16:31:18.721Z,1.60
2023-01-02T16:33:47.100Z,1.70
2023-01-02T16:36:14.034Z,1.50
2023-01-02T16:39:02.512Z,1.70
2023-01-02T16:41:37.251Z,1.60
2023-01-02T16:44:14.870Z,2.30
2023-01-02T16:46:47.122Z,1.70
2023-01-02T16:49:20.293Z,1.70
2023-01-02T16:51:53.732Z,1.60
2023-01-02T16:54:23.926Z,1.90
2023-01-02T16:56:50.923Z,1.80
2023-01-02T16:59:18.075Z,1.30
2023-01-02T17:01:45.222Z,1.60
2023-01-02T17:04:17.672Z,1.80
2023-01-02T17:06:45.119Z,2.00
2023-01-02T17:09:12.569Z,1.90
2023-01-02T17:12:00.513Z,1.80
2023-01-02T17:14:29.580Z,2.00
2023-01-02T17:16:59.046Z,1.90
2023-01-02T17:19:26.860Z,1.80
2023-01-02T17:21:53.877Z,1.70
2023-01-02T17:24:21.627Z,2.00
2023-01-02T17:26:48.816Z,1.90
2023-01-02T17:29:17.812Z,1.70
2023-01-02T17:31:44.814Z,2.20
2023-01-02T17:34:11.806Z,2.20
2023-01-02T17:36:38.883Z,2.20
2023-01-02T17:39:09.320Z,2.00
2023-01-02T17:41:39.696Z,1.90
2023-01-02T17:44:06.979Z,1.90
2023-01-02T17:49:23.770Z,2.10
2023-01-02T17:51:56.354Z,2.10
2023-01-02T17:54:27.227Z,1.80
2023-01-02T17:56:54.419Z,1.60
2023-01-02T17:59:22.294Z,1.70
2023-01-02T18:01:51.397Z,1.80
2023-01-02T18:04:23.476Z,1.70
2023-01-02T18:06:53.294Z,1.80
2023-01-02T18:09:21.807Z,2.00
2023-01-02T18:11:48.881Z,2.00
2023-01-02T18:14:27.940Z,2.00
2023-01-02T18:17:00.079Z,2.20
2023-01-02T18:19:35.123Z,1.90
2023-01-02T18:22:24.654Z,1.70
2023-01-02T18:24:52.542Z,2.10
2023-01-02T18:27:27.986Z,2.10
2023-01-02T18:30:19.768Z,2.00
2023-01-02T18:32:47.477Z,1.80
2023-01-02T18:35:56.119Z,2.00
2023-01-02T18:38:38.335Z,1.80
2023-01-02T18:41:28.242Z,2.20
2023-01-02T18:44:13.492Z,2.10
2023-01-02T18:47:03.370Z,2.30
2023-01-02T18:49:37.725Z,2.20
2023-01-02T18:52:24.511Z,2.20
2023-01-02T18:55:02.053Z,2.30
2023-01-02T18:57:32.840Z,2.00
2023-01-02T19:00:26.424Z,1.80
2023-01-02T19:03:01.628Z,2.00
2023-01-02T19:05:33.027Z,2.20
2023-01-02T19:08:12.616Z,2.40
2023-01-02T19:10:57.543Z,2.00
2023-01-02T19:13:34.003Z,2.20
2023-01-02T19:16:00.985Z,2.10
2023-01-02T19:18:38.435Z,2.10
2023-01-02T19:21:35.586Z,2.20
2023-01-02T19:24:20.218Z,2.20
2023-01-02T19:26:50.010Z,2.30
2023-01-02T19:29:20.391Z,2.00
2023-01-02T19:32:10.229Z,2.20
2023-01-02T19:35:13.449Z,2.50
2023-01-02T19:37:41.848Z,2.60
2023-01-02T19:40:19.527Z,2.20
2023-01-02T19:42:49.092Z,2.50
2023-01-02T19:45:18.844Z,2.40
2023-01-02T19:47:50.430Z,2.40
2023-01-02T19:50:21.480Z,2.50
2023-01-02T19:52:48.476Z,2.30
2023-01-02T19:55:18.097Z,2.20
2023-01-02T19:57:47.157Z,2.20
2023-01-02T20:00:16.645Z,3.50
2023-01-02T20:02:52.436Z,2.50
2023-01-02T20:05:22.548Z,3.00
2023-01-02T20:07:52.330Z,3.50
2023-01-02T20:10:19.641Z,4.40
2023-01-02T20:12:48.389Z,4.80
2023-01-02T20:15:18.118Z,9.80
2023-01-02T20:17:45.861Z,12.30
2023-01-02T20:20:15.786Z,12.40
2023-01-02T20:22:43.757Z,12.20
2023-01-02T20:25:16.855Z,10.60
2023-01-02T20:27:44.824Z,10.40
2023-01-02T20:30:15.327Z,11.80
2023-01-02T20:32:44.534Z,11.40
2023-01-02T20:35:11.570Z,11.30
2023-01-02T20:37:38.715Z,11.40
2023-01-02T20:40:06.400Z,10.80
2023-01-02T20:42:33.506Z,10.50
2023-01-02T20:47:41.431Z,10.60
2023-01-02T20:50:08.866Z,11.60
2023-01-02T20:52:36.912Z,10.90
2023-01-02T20:55:05.557Z,10.10
2023-01-02T20:57:32.475Z,10.00
2023-01-02T21:00:01.506Z,10.80
2023-01-02T21:02:29.915Z,10.30
2023-01-02T21:04:57.262Z,9.70
2023-01-02T21:07:24.253Z,5.10
2023-01-02T21:09:57.607Z,5.70
2023-01-02T21:12:43.313Z,6.40
2023-01-02T21:15:33.264Z,7.40
2023-01-02T21:18:00.931Z,7.30
2023-01-02T21:20:28.440Z,7.30
2023-01-02T21:22:55.750Z,7.30
2023-01-02T21:25:22.732Z,7.80
2023-01-02T21:27:49.736Z,7.50
2023-01-02T21:30:17.165Z,6.80
2023-01-02T21:32:44.125Z,6.90
2023-01-02T21:35:11.401Z,6.90
2023-01-02T21:37:39.680Z,7.10
2023-01-02T21:40:07.396Z,6.60
2023-01-02T21:42:40.789Z,6.70
2023-01-02T21:45:11.405Z,6.40
2023-01-02T21:47:38.538Z,6.70
2023-01-02T21:50:06.098Z,6.90
2023-01-02T21:52:33.227Z,6.80
2023-01-02T21:55:00.266Z,6.80
2023-01-02T21:58:02.556Z,6.10
2023-01-02T22:00:19.286Z,5.80
2023-01-02T22:02:48.053Z,5.90
2023-01-02T22:05:17.394Z,6.50
2023-01-02T22:07:54.505Z,5.90
2023-01-02T22:10:24.531Z,5.60
2023-01-02T22:12:51.471Z,5.80
2023-01-02T22:15:19.758Z,5.60
2023-01-02T22:17:50.593Z,5.70
2023-01-02T22:20:18.286Z,5.60
2023-01-02T22:22:47.061Z,5.40
2023-01-02T22:25:14.083Z,5.40
2023-01-02T22:27:41.978Z,4.10
2023-01-02T22:30:20.863Z,3.60
2023-01-02T22:32:50.270Z,4.30
2023-01-02T22:35:17.523Z,4.40
2023-01-02T22:37:44.565Z,3.90
2023-01-02T22:40:13.711Z,4.40
2023-01-02T22:43:05.228Z,4.00
2023-01-02T22:45:45.134Z,4.30
2023-01-02T22:48:20.984Z,4.10
2023-01-02T22:50:49.936Z,4.70
2023-01-02T22:53:27.077Z,4.40
2023-01-02T22:55:54.261Z,4.30
2023-01-02T22:58:23.084Z,4.70
2023-01-02T23:01:02.336Z,4.30
2023-01-02T23:03:39.859Z,4.10
2023-01-02T23:06:07.841Z,4.10
2023-01-02T23:08:35.437Z,4.50
2023-01-02T23:11:04.146Z,4.10
2023-01-02T23:13:33.365Z,4.10
2023-01-02T23:16:19.095Z,4.30
2023-01-02T23:19:04.927Z,3.80
2023-01-02T23:21:36.259Z,4.00
2023-01-02T23:24:04.291Z,4.20
2023-01-02T23:26:37.813Z,4.50
2023-01-02T23:29:07.109Z,4.00
2023-01-02T23:31:37.362Z,3.80
2023-01-02T23:34:04.420Z,4.30
2023-01-02T23:36:33.015Z,4.00
2023-01-02T23:38:59.927Z,4.20
2023-01-02T23:41:26.930Z,4.10
2023-01-02T23:43:53.961Z,4.00
2023-01-02T23:46:20.942Z,4.30
2023-01-02T23:48:48.521Z,4.40
2023-01-02T23:51:15.573Z,4.10
2023-01-02T23:53:42.687Z,4.10
2023-01-02T23:56:18.740Z,4.20
2023-01-02T23:58:46.340Z,3.70
